Time;durP1;ratioP1;P1;durP2;ratioP2;P2;SDS_P1;SDS_P2;PMS_P1;PMS_P2;Temp;Humidity;BMP_temperature;BMP_pressure;BME280_temperature;BME280_humidity;BME280_pressure;Samples;Min_cycle;Max_cycle;Signal;HPM_P1;HPM_P2
2022/12/04 00:01:50;;;;;;;535.53;44.30;;;7.90;99.90;;;;;;5032294;28;20059;-74
2022/12/04 00:05:13;;;;;;;77.03;26.45;;;7.90;99.90;;;;;;5031281;28;20064;-74
2022/12/04 00:08:35;;;;;;;87.97;28.15;;;7.90;99.90;;;;;;5032324;28;20109;-74
2022/12/04 00:11:39;;;;;;;90.45;30.75;;;7.90;99.90;;;;;;5031172;28;20036;-74
2022/12/04 00:14:42;;;;;;;75.30;35.78;;;8.00;99.90;;;;;;5030495;28;20045;-74
2022/12/04 00:17:47;;;;;;;92.78;46.22;;;8.10;99.90;;;;;;5032214;28;20040;-75
2022/12/04 00:21:12;;;;;;;94.78;48.72;;;8.10;99.90;;;;;;5031891;28;20043;-74
2022/12/04 00:24:16;;;;;;;82.95;44.78;;;8.10;99.90;;;;;;5032012;28;20037;-74
2022/12/04 00:27:21;;;;;;;51.70;27.58;;;8.20;99.90;;;;;;5031220;28;20499;-74
2022/12/04 00:30:25;;;;;;;42.42;23.27;;;8.20;99.90;;;;;;5032038;28;20052;-74
2022/12/04 00:34:10;;;;;;;55.45;31.73;;;8.30;99.90;;;;;;5031178;28;20036;-74
2022/12/04 00:37:32;;;;;;;45.28;25.73;;;8.30;99.90;;;;;;5031070;28;20044;-73
2022/12/04 00:40:36;;;;;;;50.28;31.30;;;8.30;99.90;;;;;;5031701;28;20056;-74
2022/12/04 00:43:41;;;;;;;43.83;25.05;;;8.40;99.90;;;;;;5030286;28;20040;-74
2022/12/04 00:46:45;;;;;;;40.78;25.55;;;8.40;99.90;;;;;;5030752;28;20068;-73
2022/12/04 00:50:28;;;;;;;38.35;24.33;;;8.40;99.90;;;;;;5031028;28;20052;-72
2022/12/04 00:53:50;;;;;;;40.53;26.25;;;8.50;99.90;;;;;;5041633;28;20064;-74
2022/12/04 00:56:54;;;;;;;28.92;18.20;;;8.50;99.90;;;;;;5031465;28;20049;-73
2022/12/04 00:59:59;;;;;;;29.92;18.10;;;8.50;99.90;;;;;;5031398;28;20393;-74
2022/12/04 01:03:22;;;;;;;38.70;22.13;;;8.60;99.90;;;;;;5031049;28;20049;-73
2022/12/04 01:06:29;;;;;;;36.78;23.17;;;8.60;99.90;;;;;;5031319;28;20040;-73
2022/12/04 01:09:33;;;;;;;445.92;43.00;;;8.50;99.90;;;;;;5030098;28;20052;-73
2022/12/04 01:12:56;;;;;;;58.20;20.45;;;8.20;99.90;;;;;;5030764;28;20052;-74
2022/12/04 01:16:00;;;;;;;56.67;29.75;;;8.20;99.90;;;;;;5031268;28;20388;-73
2022/12/04 01:19:07;;;;;;;44.63;24.63;;;8.30;99.90;;;;;;5031150;28;20057;-73
2022/12/04 01:22:11;;;;;;;39.95;20.60;;;8.30;99.90;;;;;;5029893;28;20053;-73
2022/12/04 01:25:15;;;;;;;33.17;18.48;;;8.30;99.90;;;;;;5030656;28;20052;-73
2022/12/04 01:28:20;;;;;;;32.72;17.70;;;8.30;99.90;;;;;;5041586;28;20056;-74
2022/12/04 01:31:24;;;;;;;32.83;19.38;;;8.30;99.90;;;;;;5030793;28;20056;-73
2022/12/04 01:34:27;;;;;;;35.88;19.40;;;8.40;99.90;;;;;;5030546;28;20048;-73
2022/12/04 01:37:32;;;;;;;35.65;19.70;;;8.20;99.90;;;;;;5030731;28;20048;-73
2022/12/04 01:40:42;;;;;;;43.15;23.38;;;8.20;99.90;;;;;;5030865;28;20048;-74
2022/12/04 01:44:13;;;;;;;29.83;16.63;;;8.20;99.90;;;;;;5029831;28;20526;-73
2022/12/04 01:47:17;;;;;;;32.97;18.35;;;8.30;99.90;;;;;;5030481;28;20040;-73
2022/12/04 01:50:21;;;;;;;46.03;22.65;;;8.30;99.90;;;;;;5029635;28;20207;-73
2022/12/04 01:53:26;;;;;;;114.13;27.83;;;8.20;99.90;;;;;;5029863;28;20056;-74
2022/12/04 02:00:12;;;;;;;67.63;25.70;;;8.10;99.90;;;;;;5030503;28;20348;-74
2022/12/04 02:03:16;;;;;;;35.55;21.27;;;8.20;99.90;;;;;;5029684;28;20060;-74
2022/12/04 02:06:39;;;;;;;34.40;21.42;;;8.20;99.90;;;;;;5030285;28;20044;-75
2022/12/04 02:09:44;;;;;;;34.92;20.50;;;8.30;99.90;;;;;;5030006;28;20064;-74
2022/12/04 02:13:15;;;;;;;33.83;19.15;;;8.30;99.90;;;;;;5030310;28;20044;-75
2022/12/04 02:20:22;;;;;;;33.22;20.45;;;8.30;99.90;;;;;;5029928;28;20060;-75
2022/12/04 02:23:58;;;;;;;28.83;17.13;;;8.40;99.90;;;;;;5030797;28;20061;-74
2022/12/04 02:27:09;;;;;;;28.92;18.42;;;8.40;99.90;;;;;;5030255;28;20052;-74
2022/12/04 02:30:37;;;;;;;28.50;18.23;;;8.40;99.90;;;;;;5030043;28;20151;-75
2022/12/04 02:34:03;;;;;;;27.77;17.23;;;8.40;99.90;;;;;;5029093;28;20388;-74
2022/12/04 02:37:48;;;;;;;33.90;17.63;;;8.50;99.90;;;;;;5030041;28;20044;-74
2022/12/04 02:40:56;;;;;;;26.92;16.50;;;8.50;99.90;;;;;;5040779;28;20056;-74
2022/12/04 02:44:16;;;;;;;24.63;15.57;;;8.60;99.90;;;;;;5029227;28;20068;-75
2022/12/04 02:47:23;;;;;;;20.48;13.52;;;8.60;99.90;;;;;;5029082;28;20036;-74
2022/12/04 02:50:28;;;;;;;19.13;13.48;;;8.60;99.90;;;;;;5017707;28;20049;-75
2022/12/04 02:53:45;;;;;;;22.90;13.75;;;8.60;99.90;;;;;;5029704;28;20424;-74
2022/12/04 02:57:13;;;;;;;31.15;16.05;;;8.60;99.90;;;;;;5030163;28;20384;-73
2022/12/04 03:00:40;;;;;;;28.02;16.30;;;8.40;99.90;;;;;;5030491;28;20037;-74
2022/12/04 03:03:54;;;;;;;20.13;13.43;;;8.30;99.90;;;;;;5032738;28;20056;-74
2022/12/04 03:07:10;;;;;;;24.58;14.45;;;8.30;99.90;;;;;;5032682;28;20052;-74
2022/12/04 03:10:20;;;;;;;26.23;15.10;;;8.40;99.90;;;;;;5032378;28;20064;-74
2022/12/04 03:13:49;;;;;;;20.60;12.70;;;8.50;99.90;;;;;;5032582;28;20048;-74
2022/12/04 03:16:59;;;;;;;23.88;13.55;;;8.50;99.90;;;;;;5033296;28;20448;-75
2022/12/04 03:20:10;;;;;;;26.23;13.52;;;8.50;99.90;;;;;;5032087;28;20112;-74
2022/12/04 03:23:27;;;;;;;23.17;13.80;;;8.60;99.90;;;;;;5032726;28;20064;-74
2022/12/04 03:27:07;;;;;;;21.63;12.65;;;8.60;99.90;;;;;;5033220;28;20076;-74
2022/12/04 03:30:21;;;;;;;23.42;14.57;;;8.70;99.90;;;;;;5033023;28;20251;-74
2022/12/04 03:33:35;;;;;;;23.08;14.57;;;8.70;99.90;;;;;;5032699;28;20045;-75
2022/12/04 03:37:02;;;;;;;22.10;13.25;;;8.60;99.90;;;;;;5033043;28;20056;-74
2022/12/04 03:40:18;;;;;;;24.13;14.63;;;8.60;99.90;;;;;;5032893;28;20044;-75
2022/12/04 03:44:00;;;;;;;25.33;15.68;;;8.70;99.90;;;;;;5032267;28;20041;-74
2022/12/04 03:47:09;;;;;;;18.17;11.68;;;8.70;99.90;;;;;;5032831;28;20051;-74
2022/12/04 03:50:17;;;;;;;16.10;9.68;;;8.70;99.90;;;;;;5032475;28;20044;-74
2022/12/04 03:53:46;;;;;;;262.67;25.95;;;8.80;99.90;;;;;;5030725;28;20396;-73
2022/12/04 03:56:59;;;;;;;28.75;16.95;;;8.60;99.90;;;;;;5032588;28;20509;-73
2022/12/04 04:00:26;;;;;;;698.85;58.42;;;8.40;99.90;;;;;;5032229;28;20064;-74
2022/12/04 04:03:35;;;;;;;28.55;16.65;;;8.30;99.90;;;;;;5030898;28;20048;-73
2022/12/04 04:06:47;;;;;;;41.42;18.58;;;8.30;99.90;;;;;;5032231;28;20048;-73
2022/12/04 04:09:57;;;;;;;70.22;22.65;;;8.20;99.90;;;;;;5042097;28;20404;-74
2022/12/04 04:24:15;;;;;;;15.40;7.40;;;8.60;99.90;;;;;;5031209;28;20396;-74
2022/12/04 04:27:19;;;;;;;5.53;3.22;;;8.70;99.90;;;;;;5031692;28;20048;-74
2022/12/04 04:30:25;;;;;;;5.15;2.45;;;9.00;99.90;;;;;;5030821;28;20045;-74
2022/12/04 04:33:32;;;;;;;4.05;1.75;;;9.30;99.90;;;;;;5041578;28;20038;-74
2022/12/04 04:37:00;;;;;;;2.92;1.80;;;9.60;99.90;;;;;;5031598;28;20037;-73
2022/12/04 04:40:16;;;;;;;3.00;1.30;;;9.80;99.90;;;;;;5031643;28;20041;-74
2022/12/04 04:43:23;;;;;;;3.67;1.40;;;10.00;99.90;;;;;;5030129;28;20040;-73
2022/12/04 04:46:33;;;;;;;2.10;1.10;;;10.10;99.90;;;;;;5031745;28;20052;-74
2022/12/04 04:49:39;;;;;;;2.00;1.30;;;10.10;99.90;;;;;;5031373;28;20061;-73
2022/12/04 04:52:47;;;;;;;1.67;1.13;;;10.10;99.90;;;;;;5031691;28;20044;-74
2022/12/04 04:55:51;;;;;;;4.18;1.00;;;10.10;99.90;;;;;;5031324;28;20060;-73
2022/12/04 04:58:58;;;;;;;1.70;1.00;;;10.00;99.90;;;;;;5031627;28;20045;-72
2022/12/04 05:02:03;;;;;;;2.33;1.05;;;10.10;99.90;;;;;;5031414;28;20057;-71
2022/12/04 05:05:10;;;;;;;2.00;0.80;;;10.20;99.90;;;;;;5029702;28;20041;-73
2022/12/04 05:08:14;;;;;;;1.67;0.50;;;10.20;99.90;;;;;;5031511;28;20056;-73
2022/12/04 05:11:19;;;;;;;2.47;1.35;;;10.40;99.90;;;;;;5031377;28;20396;-72
2022/12/04 05:14:23;;;;;;;3.25;1.70;;;10.50;99.90;;;;;;5029820;28;20047;-73
2022/12/04 05:17:45;;;;;;;2.17;0.75;;;10.50;99.90;;;;;;5030748;28;20044;-72
2022/12/04 05:21:15;;;;;;;2.47;1.88;;;10.50;99.90;;;;;;5030697;28;20044;-72
2022/12/04 05:24:19;;;;;;;2.63;0.80;;;10.60;99.90;;;;;;5040365;28;20060;-71
2022/12/04 05:27:24;;;;;;;0.40;0.40;;;10.70;99.90;;;;;;5029911;28;20052;-72
2022/12/04 05:30:53;;;;;;;1.05;0.50;;;10.70;99.90;;;;;;5030411;28;20056;-72
2022/12/04 05:33:57;;;;;;;2.13;0.98;;;10.80;99.90;;;;;;5029927;28;20037;-72
2022/12/04 05:37:01;;;;;;;2.38;1.73;;;10.80;99.90;;;;;;5029683;28;20048;-72
2022/12/04 05:40:06;;;;;;;3.50;1.90;;;10.70;99.90;;;;;;5030419;28;20052;-72
2022/12/04 05:46:33;;;;;;;;;;;10.70;99.90;;;;;;5030375;28;20056;-71
2022/12/04 05:49:57;;;;;;;0.70;0.43;;;10.60;99.90;;;;;;5030171;28;20279;-71
2022/12/04 05:53:01;;;;;;;3.95;1.90;;;10.60;99.90;;;;;;5030737;28;20048;-71
2022/12/04 05:56:06;;;;;;;3.88;1.25;;;10.50;99.90;;;;;;5030220;28;20048;-72
2022/12/04 06:02:33;;;;;;;;;;;10.40;99.90;;;;;;5031081;28;20105;-71
2022/12/04 06:05:55;;;;;;;3.55;1.80;;;10.40;99.90;;;;;;5030109;28;19912;-72
2022/12/04 06:08:59;;;;;;;2.38;1.30;;;10.40;99.90;;;;;;5030227;28;20049;-71
2022/12/04 06:12:04;;;;;;;3.72;1.90;;;10.30;99.90;;;;;;5030068;28;20503;-71
2022/12/04 06:15:09;;;;;;;1.42;0.82;;;10.20;99.90;;;;;;5029407;28;20041;-71
2022/12/04 06:18:13;;;;;;;3.22;1.50;;;10.20;99.90;;;;;;5030262;28;20044;-72
2022/12/04 06:21:17;;;;;;;4.63;2.08;;;10.10;99.90;;;;;;5030185;28;20048;-72
2022/12/04 06:27:46;;;;;;;6.63;2.40;;;10.00;99.90;;;;;;5029331;28;20052;-71
2022/12/04 06:30:51;;;;;;;2.80;1.63;;;9.90;99.90;;;;;;5029747;28;20049;-73
2022/12/04 06:33:56;;;;;;;2.50;1.40;;;10.00;99.90;;;;;;5029556;28;20042;-72
2022/12/04 06:37:01;;;;;;;2.20;1.50;;;10.00;99.90;;;;;;5043555;28;20397;-72
2022/12/04 06:40:05;;;;;;;5.85;1.80;;;10.10;99.90;;;;;;5033563;28;20052;-72
2022/12/04 06:43:29;;;;;;;3.15;1.73;;;10.00;99.90;;;;;;5033193;28;20045;-72
2022/12/04 06:46:34;;;;;;;1.80;1.30;;;10.10;99.90;;;;;;5033478;28;20040;-72
2022/12/04 06:49:38;;;;;;;2.25;1.65;;;10.10;99.90;;;;;;5033901;28;20052;-72
2022/12/04 06:52:42;;;;;;;7.55;2.58;;;10.20;99.90;;;;;;5033648;28;20499;-72
2022/12/04 06:55:49;;;;;;;4.32;2.88;;;10.20;99.90;;;;;;5033005;28;20045;-72
2022/12/04 06:58:55;;;;;;;3.88;2.40;;;10.30;99.90;;;;;;5033466;28;20048;-72
2022/12/04 07:01:59;;;;;;;2.80;1.80;;;10.30;99.90;;;;;;5033462;28;20049;-73
2022/12/04 07:05:04;;;;;;;1.90;1.30;;;10.40;99.90;;;;;;5032912;28;20419;-73
2022/12/04 07:08:09;;;;;;;3.42;1.63;;;10.40;99.90;;;;;;5033189;28;20044;-73
2022/12/04 07:11:14;;;;;;;5.07;2.10;;;10.30;99.90;;;;;;5032994;28;20052;-72
2022/12/04 07:14:18;;;;;;;4.25;1.50;;;10.20;99.90;;;;;;5032518;28;20048;-73
2022/12/04 07:17:22;;;;;;;1.88;1.50;;;10.20;99.90;;;;;;5020883;28;20049;-72
2022/12/04 07:20:26;;;;;;;2.38;1.30;;;10.20;99.90;;;;;;5033104;28;20057;-72
2022/12/04 07:23:31;;;;;;;3.58;1.20;;;10.20;99.90;;;;;;5031805;28;20060;-72
2022/12/04 07:26:35;;;;;;;3.53;1.00;;;10.30;99.90;;;;;;5032930;28;20053;-73
2022/12/04 07:29:59;;;;;;;3.22;1.40;;;10.30;99.90;;;;;;5032757;28;20068;-72
2022/12/04 07:33:03;;;;;;;1.80;1.10;;;10.20;99.90;;;;;;5032888;28;20052;-72
2022/12/04 07:39:32;;;;;;;2.22;1.50;;;10.20;99.90;;;;;;5032834;28;20060;-73
2022/12/04 07:42:37;;;;;;;1.73;1.40;;;10.20;99.90;;;;;;5043380;28;20048;-72
2022/12/04 07:46:07;;;;;;;4.43;1.42;;;10.20;99.90;;;;;;5032980;28;20052;-72
2022/12/04 07:49:12;;;;;;;2.50;1.15;;;10.30;99.90;;;;;;5032493;28;20052;-73
2022/12/04 07:52:16;;;;;;;4.70;1.27;;;10.30;99.90;;;;;;5043651;28;20064;-73
2022/12/04 07:55:39;;;;;;;6.55;1.40;;;10.30;99.90;;;;;;5031461;28;20503;-72
2022/12/04 07:58:43;;;;;;;1.80;1.20;;;10.40;99.90;;;;;;5032411;28;20041;-73
2022/12/04 08:01:48;;;;;;;3.67;1.35;;;10.40;99.90;;;;;;5032466;28;20044;-72
2022/12/04 08:04:53;;;;;;;3.10;1.42;;;10.40;99.90;;;;;;5031645;28;20044;-72
2022/12/04 08:07:57;;;;;;;7.78;1.60;;;10.40;99.90;;;;;;5031982;28;20048;-73
2022/12/04 08:11:09;;;;;;;3.83;1.60;;;10.40;99.90;;;;;;5030897;28;20044;-72
2022/12/04 08:14:13;;;;;;;6.78;1.63;;;10.40;99.90;;;;;;5031672;28;20040;-72
2022/12/04 08:17:17;;;;;;;4.25;1.77;;;10.50;99.90;;;;;;5042607;28;20056;-73
2022/12/04 08:24:02;;;;;;;1.95;1.20;;;10.70;99.90;;;;;;5031387;28;20045;-72
2022/12/04 08:27:07;;;;;;;9.20;1.70;;;10.70;99.90;;;;;;5031792;28;20056;-72
2022/12/04 08:30:11;;;;;;;3.33;1.23;;;10.90;99.90;;;;;;5030565;28;20400;-72
2022/12/04 08:33:34;;;;;;;3.08;1.27;;;11.00;99.90;;;;;;5031273;28;20041;-72
2022/12/04 08:36:57;;;;;;;6.82;1.10;;;11.10;99.90;;;;;;5039444;28;20052;-73
2022/12/04 08:40:02;;;;;;;3.40;1.20;;;11.20;99.90;;;;;;5031583;28;20393;-72
2022/12/04 08:43:06;;;;;;;1.77;1.05;;;11.20;99.90;;;;;;5031645;28;20052;-72
2022/12/04 08:46:29;;;;;;;5.13;1.10;;;11.40;99.90;;;;;;5031470;28;20060;-72
2022/12/04 08:49:35;;;;;;;1.88;0.82;;;11.50;99.90;;;;;;5041921;28;20511;-72
2022/12/04 08:52:39;;;;;;;4.10;1.25;;;11.70;99.90;;;;;;5042513;28;20037;-73
2022/12/04 08:55:43;;;;;;;2.78;1.23;;;11.80;99.90;;;;;;5031594;28;20053;-71
2022/12/04 08:58:48;;;;;;;2.00;1.10;;;12.10;99.90;;;;;;5030896;28;20380;-72
2022/12/04 09:05:15;;;;;;;3.65;1.90;;;12.30;99.90;;;;;;5030971;28;20582;-71
2022/12/04 09:08:19;;;;;;;4.70;1.20;;;12.30;99.90;;;;;;5030456;28;20048;-72
2022/12/04 09:11:26;;;;;;;6.15;1.58;;;12.30;99.90;;;;;;5030887;28;20499;-72
2022/12/04 09:14:30;;;;;;;4.95;1.30;;;12.20;99.90;;;;;;5018531;28;20442;-71
2022/12/04 09:17:35;;;;;;;4.60;1.25;;;12.10;99.90;;;;;;5031145;28;20040;-72
2022/12/04 09:20:41;;;;;;;6.13;1.63;;;12.10;99.90;;;;;;5030259;28;20056;-71
2022/12/04 09:23:45;;;;;;;5.38;1.38;;;12.20;99.90;;;;;;5030781;28;20060;-72
2022/12/04 09:26:51;;;;;;;6.82;1.20;;;12.40;99.90;;;;;;5030330;28;20346;-71
2022/12/04 09:29:54;;;;;;;4.05;1.20;;;12.60;99.90;;;;;;5030685;28;20048;-72
2022/12/04 09:32:59;;;;;;;9.20;1.42;;;12.70;99.90;;;;;;5030736;28;20501;-72
2022/12/04 09:36:03;;;;;;;5.68;1.25;;;13.30;99.90;;;;;;5030549;28;20045;-71
2022/12/04 09:39:09;;;;;;;5.25;1.02;;;13.70;99.90;;;;;;5030173;28;20517;-72
2022/12/04 09:42:53;;;;;;;4.22;0.95;;;14.30;99.90;;;;;;5030490;28;20503;-73
2022/12/04 09:46:05;;;;;;;2.60;1.00;;;14.50;99.90;;;;;;5030576;28;20060;-72
2022/12/04 09:49:19;;;;;;;;;;;14.40;99.90;;;;;;5030704;28;20049;-71
2022/12/04 09:52:45;;;;;;;3.65;1.20;;;15.50;99.90;;;;;;5029647;28;19917;-72
2022/12/04 09:55:52;;;;;;;4.22;0.80;;;17.80;99.90;;;;;;5040974;28;20051;-73
2022/12/04 09:59:25;;;;;;;6.68;1.95;;;18.90;99.90;;;;;;5030443;28;20385;-75
2022/12/04 10:02:56;;;;;;;2.90;1.08;;;18.10;99.90;;;;;;5030512;28;20064;-73
2022/12/04 10:06:15;;;;;;;3.05;0.85;;;18.90;99.90;;;;;;5030096;28;20426;-72
2022/12/04 10:09:26;;;;;;;5.97;0.90;;;18.20;99.90;;;;;;5030150;28;20060;-73
2022/12/04 10:12:39;;;;;;;7.05;3.30;;;19.60;99.90;;;;;;5030461;28;20056;-72
2022/12/04 10:16:16;;;;;;;4.93;2.75;;;22.50;99.90;;;;;;5029180;28;20079;-72
2022/12/04 10:19:31;;;;;;;8.38;3.53;;;22.60;99.90;;;;;;5040456;28;20036;-73
2022/12/04 10:23:32;;;;;;;5.82;1.33;;;20.20;99.90;;;;;;5030126;28;20049;-72
2022/12/04 10:26:42;;;;;;;5.82;1.42;;;18.80;99.90;;;;;;5030037;28;20219;-71
2022/12/04 10:29:52;;;;;;;7.53;2.00;;;17.60;99.90;;;;;;5029719;28;20048;-71
2022/12/04 10:33:29;;;;;;;6.32;1.60;;;16.60;99.90;;;;;;5030017;28;20119;-72
2022/12/04 10:36:34;;;;;;;4.95;2.45;;;15.40;99.90;;;;;;5030002;28;20052;-73
2022/12/04 10:40:01;;;;;;;10.05;1.85;;;14.90;99.90;;;;;;5029612;28;20052;-72
2022/12/04 10:43:15;;;;;;;11.10;5.60;;;14.70;99.90;;;;;;5030011;28;20053;-72
2022/12/04 10:46:51;;;;;;;6.68;2.47;;;14.70;99.90;;;;;;5030333;28;20053;-73
2022/12/04 10:50:22;;;;;;;5.68;1.83;;;14.70;99.90;;;;;;5029581;28;20059;-72
2022/12/04 10:53:34;;;;;;;;;;;14.50;99.90;;;;;;5029762;28;20056;-73
2022/12/04 10:57:11;;;;;;;6.45;3.15;;;14.30;99.90;;;;;;5029243;28;19913;-73
2022/12/04 11:00:44;;;;;;;4.20;1.50;;;14.10;99.90;;;;;;5029345;28;20061;-72
2022/12/04 11:04:00;;;;;;;3.53;1.20;;;13.90;99.90;;;;;;5028946;28;20051;-72
2022/12/04 11:07:18;;;;;;;9.75;2.53;;;13.80;99.90;;;;;;5027766;28;20045;-72
2022/12/04 11:10:42;;;;;;;4.93;2.20;;;13.90;99.90;;;;;;5029588;28;20055;-72
2022/12/04 11:13:48;;;;;;;11.27;2.10;;;13.90;99.90;;;;;;5029638;28;20491;-73
2022/12/04 11:17:18;;;;;;;5.10;1.80;;;13.80;99.90;;;;;;5029854;28;20045;-72
2022/12/04 11:20:25;;;;;;;4.60;1.60;;;13.80;99.90;;;;;;5029657;28;20044;-72
2022/12/04 11:23:33;;;;;;;5.95;2.60;;;13.80;99.90;;;;;;5043440;28;20121;-73
2022/12/04 11:26:41;;;;;;;6.05;1.38;;;13.90;99.90;;;;;;5032477;28;20049;-72
2022/12/04 11:29:47;;;;;;;4.43;1.70;;;13.80;99.90;;;;;;5032934;28;20060;-72
2022/12/04 11:32:54;;;;;;;5.72;1.40;;;14.10;99.90;;;;;;5033029;28;20068;-71
2022/12/04 11:36:01;;;;;;;8.02;1.63;;;14.20;99.90;;;;;;5032988;28;20044;-71
2022/12/04 11:39:16;;;;;;;11.45;1.30;;;14.40;99.90;;;;;;5032439;28;20056;-72
2022/12/04 11:42:26;;;;;;;3.83;1.20;;;14.40;99.90;;;;;;5032936;28;20044;-72
2022/12/04 11:45:32;;;;;;;5.55;1.83;;;14.30;99.90;;;;;;5031674;28;20515;-73
2022/12/04 11:48:55;;;;;;;2.83;1.30;;;15.40;99.90;;;;;;5032504;28;20057;-72
2022/12/04 11:51:59;;;;;;;4.72;1.58;;;17.00;99.90;;;;;;5032591;28;20503;-72
2022/12/04 11:55:18;;;;;;;22.27;15.23;;;16.30;99.90;;;;;;5032202;28;20051;-72
2022/12/04 11:58:50;;;;;;;7.50;3.10;;;16.00;99.90;;;;;;5032937;28;20420;-72
2022/12/04 12:01:56;;;;;;;3.20;1.23;;;15.60;99.90;;;;;;5032084;28;20052;-72
2022/12/04 12:05:20;;;;;;;9.52;1.67;;;15.50;99.90;;;;;;5032098;28;20048;-72
2022/12/04 12:08:33;;;;;;;3.08;2.22;;;15.40;99.90;;;;;;5032353;28;20045;-71
2022/12/04 12:11:40;;;;;;;4.22;1.40;;;15.30;99.90;;;;;;5031314;28;20045;-72
2022/12/04 12:15:39;;;;;;;3.05;1.23;;;15.30;99.90;;;;;;5032069;28;20044;-72
2022/12/04 12:18:59;;;;;;;4.95;1.50;;;15.80;99.90;;;;;;4981327;28;20096;-73
2022/12/04 12:22:15;;;;;;;2.70;1.00;;;17.20;99.90;;;;;;5031399;28;20048;-72
2022/12/04 12:25:43;;;;;;;5.63;1.17;;;19.00;99.90;;;;;;5031470;28;20048;-72
2022/12/04 12:29:31;;;;;;;5.40;1.13;;;19.00;99.90;;;;;;5031963;28;20049;-71
2022/12/04 12:33:10;;;;;;;5.68;3.00;;;18.20;99.90;;;;;;5026627;28;20052;-72
2022/12/04 12:36:15;;;;;;;5.00;1.20;;;18.80;99.90;;;;;;5032263;28;20583;-71
2022/12/04 12:39:25;;;;;;;5.05;2.08;;;20.80;99.90;;;;;;5031836;28;20056;-71
2022/12/04 12:42:48;;;;;;;8.50;4.40;;;21.40;99.90;;;;;;5031953;28;20048;-71
2022/12/04 12:46:14;;;;;;;6.43;1.15;;;21.00;99.90;;;;;;5030935;28;20060;-71
2022/12/04 12:49:39;;;;;;;7.30;3.70;;;21.80;99.90;;;;;;5030788;28;20630;-72
2022/12/04 12:52:57;;;;;;;5.72;2.20;;;21.70;99.90;;;;;;5034116;28;20044;-70
2022/12/04 12:56:03;;;;;;;4.55;1.55;;;20.30;99.90;;;;;;5031586;28;20064;-71
2022/12/04 12:59:18;;;;;;;7.60;3.90;;;19.30;99.90;;;;;;5030905;28;20113;-71
2022/12/04 13:02:29;;;;;;;8.68;3.60;;;18.50;99.90;;;;;;5031391;28;20072;-70
2022/12/04 13:05:38;;;;;;;6.05;2.25;;;18.00;99.90;;;;;;5031122;28;20057;-71
2022/12/04 13:09:08;;;;;;;7.85;2.00;;;17.90;99.90;;;;;;5031485;28;20076;-70
2022/12/04 13:12:15;;;;;;;8.30;1.67;;;19.10;99.90;;;;;;5030342;28;20060;-72
2022/12/04 13:15:23;;;;;;;6.32;1.27;;;20.70;99.90;;;;;;5031245;28;20041;-71
2022/12/04 13:22:43;;;;;;;8.80;1.80;;;21.30;99.90;;;;;;5031125;28;20417;-71
2022/12/04 13:26:10;;;;;;;3.60;1.33;;;21.60;99.90;;;;;;5031045;28;20044;-70
2022/12/04 13:29:41;;;;;;;11.43;4.47;;;20.60;99.90;;;;;;5019014;28;20048;-72
2022/12/04 13:33:26;;;;;;;14.35;6.10;;;18.70;99.90;;;;;;5030950;28;20045;-71
2022/12/04 13:37:02;;;;;;;4.82;1.27;;;17.10;99.90;;;;;;5030891;28;20056;-72
2022/12/04 13:40:34;;;;;;;8.70;5.28;;;16.00;99.90;;;;;;5030843;28;20044;-71
2022/12/04 13:47:07;;;;;;;13.10;5.25;;;15.20;99.90;;;;;;5030875;28;20380;-72
2022/12/04 13:50:17;;;;;;;9.63;2.40;;;15.60;99.90;;;;;;5030294;28;20491;-71
2022/12/04 13:53:36;;;;;;;11.32;2.92;;;16.40;99.90;;;;;;5040660;28;20041;-72
2022/12/04 13:57:14;;;;;;;7.63;2.17;;;16.20;99.90;;;;;;5030534;28;20061;-72
2022/12/04 14:00:34;;;;;;;7.43;2.42;;;15.70;99.90;;;;;;5040869;28;20388;-72
2022/12/04 14:04:05;;;;;;;8.20;4.72;;;15.30;99.90;;;;;;5029974;28;20055;-71
2022/12/04 14:07:41;;;;;;;5.50;1.63;;;17.00;99.90;;;;;;5030675;28;20048;-71
2022/12/04 14:11:01;;;;;;;5.40;2.47;;;17.00;99.90;;;;;;5030474;28;20045;-72
2022/12/04 14:14:14;;;;;;;6.47;1.98;;;16.50;99.90;;;;;;5029985;28;20060;-71
2022/12/04 14:17:36;;;;;;;10.73;1.80;;;16.50;99.90;;;;;;5030221;28;20044;-72
2022/12/04 14:20:46;;;;;;;7.63;1.85;;;16.70;99.90;;;;;;5029489;28;20534;-71
2022/12/04 14:23:51;;;;;;;7.07;1.40;;;16.70;99.90;;;;;;5029907;28;20056;-71
2022/12/04 14:26:59;;;;;;;6.57;1.63;;;16.90;99.90;;;;;;5030217;28;20048;-71
2022/12/04 14:30:03;;;;;;;8.63;2.42;;;16.70;99.90;;;;;;5030128;28;20044;-70
2022/12/04 14:33:15;;;;;;;9.30;3.63;;;16.40;99.90;;;;;;5040693;28;20486;-71
2022/12/04 14:36:35;;;;;;;22.15;8.02;;;16.60;99.90;;;;;;5029969;28;20491;-71
2022/12/04 14:40:03;;;;;;;8.20;2.67;;;16.80;99.90;;;;;;5040599;28;20507;-71
2022/12/04 14:43:18;;;;;;;10.38;2.65;;;16.70;99.90;;;;;;5030017;28;20044;-72
2022/12/04 14:46:43;;;;;;;7.63;1.90;;;16.10;99.90;;;;;;5029583;28;20040;-72
2022/12/04 14:49:59;;;;;;;11.60;4.10;;;15.40;99.90;;;;;;5029931;28;20045;-72
2022/12/04 14:53:36;;;;;;;12.55;2.70;;;15.30;99.90;;;;;;5029722;28;20057;-72
2022/12/04 15:00:27;;;;;;;7.45;2.90;;;15.00;99.90;;;;;;5033509;28;20036;-73
2022/12/04 15:03:35;;;;;;;13.90;2.72;;;14.70;99.90;;;;;;5033241;28;20541;-71
2022/12/04 15:06:40;;;;;;;11.75;4.80;;;14.40;99.90;;;;;;5032356;28;20048;-72
2022/12/04 15:13:26;;;;;;;14.93;7.35;;;14.20;99.90;;;;;;5033124;28;20052;-72
2022/12/04 15:16:50;;;;;;;17.45;6.32;;;14.70;99.90;;;;;;5033640;28;20105;-71
2022/12/04 15:20:12;;;;;;;11.60;3.38;;;14.80;99.90;;;;;;5033654;28;20443;-72
2022/12/04 15:23:28;;;;;;;10.13;3.47;;;14.50;99.90;;;;;;5032095;28;20048;-70
2022/12/04 15:26:34;;;;;;;17.80;3.83;;;14.20;99.90;;;;;;5033246;28;20056;-71
2022/12/04 15:29:47;;;;;;;14.40;7.20;;;14.00;99.90;;;;;;5033655;28;20041;-70
2022/12/04 15:32:52;;;;;;;7.68;3.53;;;13.70;99.90;;;;;;5033142;28;20049;-71
2022/12/04 15:36:01;;;;;;;19.48;5.22;;;13.40;99.90;;;;;;5033251;28;20040;-70
2022/12/04 15:39:27;;;;;;;18.80;8.50;;;13.20;99.90;;;;;;5032961;28;20052;-72
2022/12/04 15:42:31;;;;;;;14.80;4.00;;;13.10;99.90;;;;;;5043172;28;20044;-71
2022/12/04 15:45:35;;;;;;;17.75;4.05;;;12.90;99.90;;;;;;5033046;28;20040;-72
2022/12/04 15:48:39;;;;;;;11.40;3.67;;;12.80;99.90;;;;;;5032404;28;20045;-70
2022/12/04 15:51:47;;;;;;;17.63;3.70;;;12.70;99.90;;;;;;5043095;28;20056;-72
2022/12/04 15:55:19;;;;;;;10.88;3.53;;;12.60;99.90;;;;;;5032386;28;20037;-72
2022/12/04 15:58:30;;;;;;;22.25;3.10;;;12.60;99.90;;;;;;5032085;28;20393;-72
2022/12/04 16:01:39;;;;;;;29.15;20.10;;;12.50;99.90;;;;;;5031683;28;20507;-71
2022/12/04 16:08:37;;;;;;;17.33;4.60;;;12.40;99.90;;;;;;5031675;28;20068;-71
2022/12/04 16:11:43;;;;;;;17.92;3.60;;;12.40;99.90;;;;;;5032467;28;20045;-72
2022/12/04 16:15:06;;;;;;;24.08;8.35;;;12.30;99.90;;;;;;5031703;28;20395;-71
2022/12/04 16:18:12;;;;;;;11.88;3.33;;;12.20;99.90;;;;;;5043186;28;20045;-71
2022/12/04 16:21:20;;;;;;;29.75;12.55;;;12.20;99.90;;;;;;5032514;28;20053;-72
2022/12/04 16:24:44;;;;;;;16.75;6.90;;;12.10;99.90;;;;;;5031812;28;20044;-72
2022/12/04 16:27:48;;;;;;;15.10;2.67;;;12.00;99.90;;;;;;5042693;28;20044;-71
2022/12/04 16:31:11;;;;;;;18.42;3.88;;;12.10;99.90;;;;;;5030826;28;20052;-71
2022/12/04 16:34:15;;;;;;;19.15;3.90;;;12.00;99.90;;;;;;5031549;28;20076;-71
2022/12/04 16:37:21;;;;;;;27.00;12.45;;;12.00;99.90;;;;;;5032154;28;20049;-71
2022/12/04 16:40:25;;;;;;;44.22;11.77;;;12.00;99.90;;;;;;5032501;28;20040;-72
2022/12/04 16:43:29;;;;;;;28.38;7.57;;;12.00;99.90;;;;;;5030686;28;20049;-71
2022/12/04 16:46:33;;;;;;;28.80;10.50;;;12.00;99.90;;;;;;5031059;28;20499;-72
2022/12/04 16:49:37;;;;;;;25.60;7.53;;;12.10;99.90;;;;;;5031857;28;20041;-71
2022/12/04 16:53:00;;;;;;;16.40;4.50;;;12.10;99.90;;;;;;5031373;28;20048;-72
2022/12/04 16:56:05;;;;;;;11.85;5.10;;;12.10;99.90;;;;;;5031452;28;20056;-72
2022/12/04 16:59:08;;;;;;;15.80;3.17;;;12.10;99.90;;;;;;5031554;28;20048;-71
2022/12/04 17:02:24;;;;;;;11.52;3.60;;;12.10;99.90;;;;;;5031748;28;20076;-72
2022/12/04 17:05:34;;;;;;;14.45;4.20;;;12.10;99.90;;;;;;5031191;28;20048;-72
2022/12/04 17:08:39;;;;;;;18.73;7.65;;;12.10;99.90;;;;;;5030336;28;20413;-71
2022/12/04 17:12:02;;;;;;;21.02;6.13;;;12.00;99.90;;;;;;5030923;28;20057;-72
2022/12/04 17:15:25;;;;;;;14.73;4.22;;;12.00;99.90;;;;;;5031095;28;20028;-71
2022/12/04 17:18:28;;;;;;;;;;;12.00;99.90;;;;;;5031354;28;20044;-71
2022/12/04 17:21:52;;;;;;;12.93;3.50;;;12.00;99.90;;;;;;5031093;28;19913;-71
2022/12/04 17:24:57;;;;;;;36.10;19.35;;;12.00;99.90;;;;;;5030448;28;20502;-71
2022/12/04 17:28:01;;;;;;;10.65;4.18;;;12.00;99.90;;;;;;5031168;28;20060;-71
2022/12/04 17:31:18;;;;;;;20.02;3.50;;;12.00;99.90;;;;;;5029941;28;20052;-72
2022/12/04 17:38:22;;;;;;;11.35;3.88;;;12.00;99.90;;;;;;5030632;28;20044;-71
2022/12/04 17:41:26;;;;;;;10.63;4.00;;;12.00;99.90;;;;;;5031183;28;20400;-71
2022/12/04 17:44:49;;;;;;;21.23;8.45;;;11.90;99.90;;;;;;5030240;28;20044;-71